Time;durP1;ratioP1;P1;durP2;ratioP2;P2;SDS_P1;SDS_P2;PMS_P1;PMS_P2;Temp;Humidity;BMP_temperature;BMP_pressure;BME280_temperature;BME280_humidity;BME280_pressure;Samples;Min_cycle;Max_cycle;Signal;HPM_P1;HPM_P2
2023/09/17 00:01:31;;;;;;;;;;;;;;;19.23;100.00;95686.19;5137423;27;948;-54
2023/09/17 00:03:57;;;;;;;;;;;;;;;19.17;100.00;95687.00;5137276;27;1084;-55
2023/09/17 00:06:23;;;;;;;;;;;;;;;19.17;100.00;95683.47;5137280;27;995;-55
2023/09/17 00:08:49;;;;;;;;;;;;;;;19.14;100.00;95681.97;5137355;27;980;-55
2023/09/17 00:11:15;;;;;;;;;;;;;;;19.19;100.00;95682.22;5137172;27;1091;-55
2023/09/17 00:13:41;;;;;;;;;;;;;;;19.23;100.00;95686.19;5118632;27;1413;-55
2023/09/17 00:16:07;;;;;;;;;;;;;;;19.16;100.00;95685.34;5136972;27;1059;-55
2023/09/17 00:18:33;;;;;;;;;;;;;;;19.11;100.00;95677.81;5136747;27;1910;-55
2023/09/17 00:20:59;;;;;;;;;;;;;;;19.10;100.00;95680.72;5136858;27;1071;-55
2023/09/17 00:23:25;;;;;;;;;;;;;;;19.02;100.00;95678.19;5136994;27;1007;-55
2023/09/17 00:25:51;;;;;;;;;;;;;;;18.96;100.00;95684.41;5137074;27;988;-55
2023/09/17 00:28:17;;;;;;;;;;;;;;;18.95;100.00;95683.56;5136632;27;1052;-55
2023/09/17 00:30:43;;;;;;;;;;;;;;;18.96;100.00;95679.00;5136711;27;1058;-54
2023/09/17 00:33:09;;;;;;;;;;;;;;;18.92;100.00;95681.25;5136343;27;1083;-55
2023/09/17 00:35:35;;;;;;;;;;;;;;;18.79;100.00;95673.03;5136579;27;1003;-55
2023/09/17 00:38:03;;;;;;;;;;;;;;;18.77;100.00;95675.94;5136248;27;1905;-55
2023/09/17 00:40:30;;;;;;;;;;;;;;;18.74;100.00;95676.31;5136701;27;1016;-55
2023/09/17 00:42:56;;;;;;;;;;;;;;;18.63;100.00;95671.47;5136596;27;989;-55
2023/09/17 00:45:22;;;;;;;;;;;;;;;18.57;100.00;95674.97;5136378;27;1040;-55
2023/09/17 00:47:48;;;;;;;;;;;;;;;18.62;100.00;95669.81;5136420;27;1120;-54
2023/09/17 00:50:14;;;;;;;;;;;;;;;18.62;100.00;95670.63;5136395;27;1027;-55
2023/09/17 00:52:40;;;;;;;;;;;;;;;18.66;100.00;95662.94;5136530;27;977;-55
2023/09/17 00:55:08;;;;;;;;;;;;;;;18.59;100.00;95672.91;5136475;27;976;-55
2023/09/17 00:57:35;;;;;;;;;;;;;;;18.49;100.00;95670.53;5136184;27;1052;-54
2023/09/17 01:00:03;;;;;;;;;;;;;;;18.56;100.00;95670.59;5115759;28;1979;-55
2023/09/17 01:02:29;;;;;;;;;;;;;;;18.51;100.00;95663.88;5115445;28;1047;-55
2023/09/17 01:04:55;;;;;;;;;;;;;;;18.38;100.00;95655.69;5115348;28;958;-55
2023/09/17 01:07:22;;;;;;;;;;;;;;;18.28;100.00;95660.63;5115607;28;1041;-55
2023/09/17 01:09:48;;;;;;;;;;;;;;;18.28;100.00;95655.19;5115447;28;1040;-55
2023/09/17 01:12:14;;;;;;;;;;;;;;;18.36;100.00;95660.44;5115575;28;998;-55
2023/09/17 01:14:40;;;;;;;;;;;;;;;18.40;100.00;95664.47;5115255;28;1095;-55
2023/09/17 01:17:10;;;;;;;;;;;;;;;18.25;100.00;95666.41;5115456;28;977;-55
2023/09/17 01:19:36;;;;;;;;;;;;;;;18.12;100.00;95665.28;5115005;28;1984;-55
2023/09/17 01:22:06;;;;;;;;;;;;;;;18.02;100.00;95661.22;5115316;28;987;-55
2023/09/17 01:24:41;;;;;;;;;;;;;;;18.06;100.00;95663.38;5114995;28;1024;-55
2023/09/17 01:27:08;;;;;;;;;;;;;;;18.10;100.00;95664.66;5115105;28;958;-55
2023/09/17 01:29:35;;;;;;;;;;;;;;;18.04;100.00;95653.75;5114920;28;1019;-55
2023/09/17 01:32:03;;;;;;;;;;;;;;;18.01;100.00;95656.88;5114836;28;1056;-54
2023/09/17 01:34:30;;;;;;;;;;;;;;;18.00;100.00;95663.28;5114703;28;1028;-55
2023/09/17 01:37:00;;;;;;;;;;;;;;;17.91;100.00;95658.03;5115038;28;1048;-55
2023/09/17 01:39:27;;;;;;;;;;;;;;;17.87;100.00;95661.28;5114539;28;1897;-55
2023/09/17 01:41:54;;;;;;;;;;;;;;;17.70;100.00;95653.44;5115008;28;1042;-55
2023/09/17 01:44:24;;;;;;;;;;;;;;;17.58;100.00;95660.38;5114163;28;1071;-55
2023/09/17 01:46:50;;;;;;;;;;;;;;;17.68;100.00;95660.91;5114801;28;944;-54
2023/09/17 01:49:16;;;;;;;;;;;;;;;17.75;100.00;95661.78;5114514;28;1032;-55
2023/09/17 01:51:43;;;;;;;;;;;;;;;17.66;100.00;95672.94;5114744;28;1063;-54
2023/09/17 01:54:10;;;;;;;;;;;;;;;17.67;100.00;95669.22;5114620;28;1001;-54
2023/09/17 01:56:37;;;;;;;;;;;;;;;17.70;100.00;95671.50;5114493;28;1032;-54
2023/09/17 01:59:04;;;;;;;;;;;;;;;17.71;100.00;95668.63;5126910;27;1993;-55
2023/09/17 02:01:30;;;;;;;;;;;;;;;17.78;100.00;95667.88;5134748;27;1083;-55
2023/09/17 02:03:57;;;;;;;;;;;;;;;17.89;100.00;95673.63;5134901;27;1096;-55
2023/09/17 02:06:23;;;;;;;;;;;;;;;17.83;100.00;95676.22;5135018;27;1131;-55
2023/09/17 02:08:49;;;;;;;;;;;;;;;17.63;100.00;95674.16;5134739;27;1024;-55
2023/09/17 02:11:15;;;;;;;;;;;;;;;17.65;100.00;95676.69;5134583;27;1052;-54
2023/09/17 02:13:41;;;;;;;;;;;;;;;17.87;100.00;95677.53;5134790;27;992;-54
2023/09/17 02:16:07;;;;;;;;;;;;;;;17.93;100.00;95671.38;5134578;27;1072;-55
2023/09/17 02:18:33;;;;;;;;;;;;;;;17.76;100.00;95674.28;5134742;27;1949;-55
2023/09/17 02:20:59;;;;;;;;;;;;;;;17.59;100.00;95680.97;5134569;27;997;-54
2023/09/17 02:23:25;;;;;;;;;;;;;;;17.50;100.00;95668.63;5133986;27;2014;-55
2023/09/17 02:25:51;;;;;;;;;;;;;;;17.51;100.00;95679.25;5127314;27;1774;-55
2023/09/17 02:28:17;;;;;;;;;;;;;;;17.66;100.00;95673.78;5130003;27;1294;-54
2023/09/17 02:30:43;;;;;;;;;;;;;;;17.94;100.00;95664.91;5127880;27;1534;-54
2023/09/17 02:33:10;;;;;;;;;;;;;;;18.18;100.00;95660.97;5133590;27;1055;-55
2023/09/17 02:35:36;;;;;;;;;;;;;;;18.29;100.00;95665.00;5133839;27;1027;-55
2023/09/17 02:38:03;;;;;;;;;;;;;;;18.37;100.00;95670.25;5133169;27;1999;-56
2023/09/17 02:40:29;;;;;;;;;;;;;;;18.32;100.00;95662.72;5113384;28;1095;-55
2023/09/17 02:42:56;;;;;;;;;;;;;;;18.25;100.00;95666.41;5113703;28;1027;-55
2023/09/17 02:45:22;;;;;;;;;;;;;;;18.11;100.00;95660.88;5113354;28;1993;-55
2023/09/17 02:47:48;;;;;;;;;;;;;;;17.96;100.00;95665.53;5114163;28;1020;-55
2023/09/17 02:50:14;;;;;;;;;;;;;;;17.90;100.00;95658.22;5112082;28;1115;-55
2023/09/17 02:52:40;;;;;;;;;;;;;;;17.86;100.00;95665.88;5111934;28;980;-55
2023/09/17 02:55:08;;;;;;;;;;;;;;;17.85;100.00;95655.25;5114271;28;1053;-54
2023/09/17 02:57:34;;;;;;;;;;;;;;;17.85;100.00;95658.81;5116068;28;1028;-55
2023/09/17 03:00:00;;;;;;;;;;;;;;;17.87;100.00;95664.00;5095658;28;1910;-55
2023/09/17 03:02:26;;;;;;;;;;;;;;;17.87;100.00;95659.47;5095851;28;961;-55
2023/09/17 03:04:56;;;;;;;;;;;;;;;17.85;100.00;95657.94;5096770;28;1058;-54
2023/09/17 03:07:22;;;;;;;;;;;;;;;17.78;100.00;95665.16;5097561;28;1033;-55
2023/09/17 03:09:48;;;;;;;;;;;;;;;17.69;100.00;95661.72;5097387;28;1231;-54
2023/09/17 03:12:14;;;;;;;;;;;;;;;17.59;100.00;95667.47;5097158;28;1048;-55
2023/09/17 03:14:40;;;;;;;;;;;;;;;17.69;100.00;95659.03;5097127;28;1015;-55
2023/09/17 03:17:06;;;;;;;;;;;;;;;17.87;100.00;95655.88;5097123;28;1032;-55
2023/09/17 03:19:32;;;;;;;;;;;;;;;17.93;100.00;95650.56;5106677;28;2565;-55
2023/09/17 03:21:58;;;;;;;;;;;;;;;17.90;100.00;95650.94;5117536;28;970;-55
2023/09/17 03:24:24;;;;;;;;;;;;;;;17.84;100.00;95653.56;5117620;28;1057;-55
2023/09/17 03:26:51;;;;;;;;;;;;;;;17.83;100.00;95665.41;5117407;28;1037;-55
2023/09/17 03:29:17;;;;;;;;;;;;;;;17.92;100.00;95658.84;5117454;28;961;-55
2023/09/17 03:31:45;;;;;;;;;;;;;;;18.01;100.00;95656.88;5117530;28;958;-54
2023/09/17 03:34:11;;;;;;;;;;;;;;;18.04;100.00;95651.91;5117413;28;1045;-55
2023/09/17 03:36:37;;;;;;;;;;;;;;;18.10;100.00;95661.94;5117185;28;1103;-55
2023/09/17 03:39:06;;;;;;;;;;;;;;;18.14;100.00;95665.09;5126408;27;1980;-55
2023/09/17 03:41:32;;;;;;;;;;;;;;;18.10;100.00;95664.66;5137595;27;1034;-55
2023/09/17 03:43:58;;;;;;;;;;;;;;;18.13;100.00;95661.53;5137486;27;1103;-55
2023/09/17 03:46:24;;;;;;;;;;;;;;;18.16;100.00;95663.03;5137412;27;1016;-54
2023/09/17 03:48:50;;;;;;;;;;;;;;;18.17;100.00;95669.25;5137497;27;1169;-54
2023/09/17 03:51:16;;;;;;;;;;;;;;;18.07;100.00;95675.84;5137399;27;960;-55
2023/09/17 03:53:43;;;;;;;;;;;;;;;17.90;100.00;95671.75;5137789;27;1063;-54
2023/09/17 03:56:11;;;;;;;;;;;;;;;17.84;100.00;95673.34;5137348;27;1993;-55
2023/09/17 03:58:37;;;;;;;;;;;;;;;17.83;100.00;95676.22;5136887;27;1910;-55
2023/09/17 04:01:06;;;;;;;;;;;;;;;17.88;100.00;95673.81;5137218;27;1079;-55
2023/09/17 04:03:32;;;;;;;;;;;;;;;17.95;100.00;95678.25;5135838;27;2552;-55
2023/09/17 04:05:58;;;;;;;;;;;;;;;17.98;100.00;95679.72;5136434;27;1044;-55
2023/09/17 04:08:24;;;;;;;;;;;;;;;17.99;100.00;95681.41;5137320;27;992;-54
2023/09/17 04:10:54;;;;;;;;;;;;;;;18.05;100.00;95674.38;5137052;27;1019;-55
2023/09/17 04:13:20;;;;;;;;;;;;;;;18.04;100.00;95678.97;5136864;27;1049;-55
2023/09/17 04:15:46;;;;;;;;;;;;;;;18.00;100.00;95680.34;5118741;27;1032;-55
2023/09/17 04:18:12;;;;;;;;;;;;;;;18.02;100.00;95683.72;5136771;27;1902;-55
2023/09/17 04:20:38;;;;;;;;;;;;;;;17.87;100.00;95677.53;5137165;27;1029;-55
2023/09/17 04:23:04;;;;;;;;;;;;;;;17.61;100.00;95683.50;5136848;27;1028;-54
2023/09/17 04:25:32;;;;;;;;;;;;;;;17.57;100.00;95680.34;5136746;27;941;-54
2023/09/17 04:27:58;;;;;;;;;;;;;;;17.52;100.00;95683.59;5136737;27;1873;-55
2023/09/17 04:30:24;;;;;;;;;;;;;;;17.59;100.00;95678.28;5136878;27;1036;-55
2023/09/17 04:32:51;;;;;;;;;;;;;;;17.69;100.00;95686.91;5136187;27;1158;-55
2023/09/17 04:35:17;;;;;;;;;;;;;;;17.81;100.00;95691.81;5136452;27;1087;-55
2023/09/17 04:37:44;;;;;;;;;;;;;;;17.67;100.00;95688.97;5136587;27;1044;-55
2023/09/17 04:40:11;;;;;;;;;;;;;;;17.52;100.00;95693.59;5136218;27;1997;-55
2023/09/17 04:42:38;;;;;;;;;;;;;;;17.50;100.00;95685.66;5118336;27;968;-55
2023/09/17 04:45:05;;;;;;;;;;;;;;;17.62;100.00;95693.28;5136671;27;1109;-55
2023/09/17 04:47:33;;;;;;;;;;;;;;;17.70;100.00;95690.44;5136276;27;1122;-55
2023/09/17 04:49:59;;;;;;;;;;;;;;;17.72;100.00;95700.06;5136573;27;961;-55
2023/09/17 04:52:25;;;;;;;;;;;;;;;17.64;100.00;95697.47;5136496;27;1060;-55
2023/09/17 04:54:51;;;;;;;;;;;;;;;17.73;100.00;95690.88;5136211;27;1155;-55
2023/09/17 04:57:17;;;;;;;;;;;;;;;17.73;100.00;95693.59;5134898;27;2003;-55
2023/09/17 04:59:43;;;;;;;;;;;;;;;17.65;100.00;95693.72;5118139;27;2004;-54
2023/09/17 05:02:09;;;;;;;;;;;;;;;17.61;100.00;95694.31;5115595;28;1023;-55
2023/09/17 05:04:35;;;;;;;;;;;;;;;17.62;100.00;95687.88;5115151;28;1040;-55
2023/09/17 05:07:01;;;;;;;;;;;;;;;17.57;100.00;95699.28;5115498;28;1044;-55
2023/09/17 05:09:27;;;;;;;;;;;;;;;17.61;100.00;95705.13;5118271;27;1003;-55
2023/09/17 05:11:53;;;;;;;;;;;;;;;17.66;100.00;95700.81;5134348;27;1126;-55
2023/09/17 05:14:19;;;;;;;;;;;;;;;17.76;100.00;95705.91;5134614;27;1725;-55
2023/09/17 05:16:45;;;;;;;;;;;;;;;17.73;100.00;95698.19;5135796;27;1040;-55
2023/09/17 05:19:11;;;;;;;;;;;;;;;17.91;100.00;95698.59;5134856;27;1910;-55
2023/09/17 05:21:37;;;;;;;;;;;;;;;18.08;100.00;95703.72;5135981;27;1043;-55
2023/09/17 05:24:03;;;;;;;;;;;;;;;18.33;100.00;95709.59;5117400;27;998;-54
2023/09/17 05:26:29;;;;;;;;;;;;;;;18.63;100.00;95704.81;5135384;27;976;-55
2023/09/17 05:28:56;;;;;;;;;;;;;;;18.80;100.00;95708.09;5135630;27;1084;-55
2023/09/17 05:31:23;;;;;;;;;;;;;;;18.84;100.00;95701.22;5133334;27;1510;-54
2023/09/17 05:33:50;;;;;;;;;;;;;;;18.96;100.00;95706.09;5135201;27;1249;-55
2023/09/17 05:36:16;;;;;;;;;;;;;;;19.05;100.00;95715.75;5135627;27;973;-56
2023/09/17 05:38:42;;;;;;;;;;;;;;;19.21;100.00;95706.44;5129081;27;1914;-56
2023/09/17 05:41:11;;;;;;;;;;;;;;;19.23;100.00;95716.00;5114285;28;1048;-55
2023/09/17 05:43:38;;;;;;;;;;;;;;;19.23;100.00;95710.59;5113887;28;901;-55
2023/09/17 05:46:04;;;;;;;;;;;;;;;19.16;100.00;95717.88;5114340;28;1760;-55
2023/09/17 05:48:31;;;;;;;;;;;;;;;19.00;100.00;95712.78;5114509;28;940;-55
2023/09/17 05:50:56;;;;;;;;;;;;;;;19.10;100.00;95713.25;5114625;28;970;-55
2023/09/17 05:53:23;;;;;;;;;;;;;;;19.18;100.00;95723.94;5114324;28;1052;-55
2023/09/17 05:55:49;;;;;;;;;;;;;;;19.37;100.00;95711.50;5114690;28;990;-55
2023/09/17 05:58:15;;;;;;;;;;;;;;;19.80;100.00;95723.97;5114391;28;1901;-55
2023/09/17 06:00:41;;;;;;;;;;;;;;;20.02;100.00;95717.34;5114662;28;1011;-55
2023/09/17 06:03:07;;;;;;;;;;;;;;;20.35;100.00;95711.09;5114434;28;1025;-55
2023/09/17 06:05:33;;;;;;;;;;;;;;;20.40;100.00;95708.59;5114272;28;1044;-56
2023/09/17 06:07:59;;;;;;;;;;;;;;;20.53;99.40;95706.94;5096377;28;1069;-55
2023/09/17 06:10:26;;;;;;;;;;;;;;;20.82;98.48;95711.94;5114031;28;1057;-55
2023/09/17 06:12:52;;;;;;;;;;;;;;;21.09;95.40;95721.94;5114138;28;1099;-55
2023/09/17 06:15:18;;;;;;;;;;;;;;;21.02;94.76;95713.81;5114185;28;1028;-55
2023/09/17 06:17:44;;;;;;;;;;;;;;;21.00;97.78;95715.88;5114510;28;958;-55
2023/09/17 06:20:10;;;;;;;;;;;;;;;21.18;98.45;95718.75;5114207;28;1906;-56
2023/09/17 06:22:36;;;;;;;;;;;;;;;21.33;96.44;95725.84;5114043;28;1027;-55
2023/09/17 06:25:03;;;;;;;;;;;;;;;21.54;95.75;95727.47;5095949;28;972;-55
2023/09/17 06:27:30;;;;;;;;;;;;;;;21.46;91.79;95723.09;5113788;28;1075;-56
2023/09/17 06:29:56;;;;;;;;;;;;;;;21.60;94.57;95730.16;5113601;28;1103;-55
2023/09/17 06:32:22;;;;;;;;;;;;;;;22.03;93.89;95732.22;5113796;28;1104;-55
2023/09/17 06:34:48;;;;;;;;;;;;;;;22.26;90.27;95732.75;5113763;28;1044;-56
2023/09/17 06:37:14;;;;;;;;;;;;;;;22.59;87.41;95727.03;5113682;28;1021;-56
2023/09/17 06:39:41;;;;;;;;;;;;;;;22.79;84.77;95733.16;5128048;27;1992;-56
2023/09/17 06:42:09;;;;;;;;;;;;;;;22.61;88.80;95735.81;5134528;27;1060;-56
2023/09/17 06:44:35;;;;;;;;;;;;;;;22.80;87.78;95734.84;5131604;27;1966;-56
2023/09/17 06:47:02;;;;;;;;;;;;;;;22.84;89.78;95734.38;5133122;28;1044;-56
2023/09/17 06:49:28;;;;;;;;;;;;;;;22.86;84.80;95738.56;5133700;28;1963;-56
2023/09/17 06:51:55;;;;;;;;;;;;;;;22.91;83.10;95749.59;5120479;28;1047;-56
2023/09/17 06:54:21;;;;;;;;;;;;;;;22.95;88.10;95741.81;5113904;28;1044;-56
2023/09/17 06:56:47;;;;;;;;;;;;;;;22.43;89.12;95742.06;5124470;28;2033;-57
2023/09/17 06:59:14;;;;;;;;;;;;;;;22.00;90.05;95731.84;5111701;28;1984;-57
2023/09/17 07:01:41;;;;;;;;;;;;;;;21.99;92.12;95739.16;5133456;28;1032;-57
2023/09/17 07:04:08;;;;;;;;;;;;;;;22.50;90.99;95736.53;5108216;28;1652;-56
2023/09/17 07:06:34;;;;;;;;;;;;;;;22.78;88.83;95742.41;5132037;28;2839;-57
2023/09/17 07:09:01;;;;;;;;;;;;;;;22.65;88.83;95736.22;5131998;28;1875;-58
2023/09/17 07:11:27;;;;;;;;;;;;;;;22.56;91.80;95738.41;5134242;28;1052;-58
2023/09/17 07:13:53;;;;;;;;;;;;;;;22.27;93.79;95743.44;5128190;28;1530;-57
2023/09/17 07:16:20;;;;;;;;;;;;;;;21.98;90.75;95742.94;5112939;28;1522;-57
2023/09/17 07:18:46;;;;;;;;;;;;;;;21.96;91.94;95744.22;5113383;28;1925;-58
2023/09/17 07:21:13;;;;;;;;;;;;;;;22.14;93.84;95748.91;5113495;28;993;-57
2023/09/17 07:23:39;;;;;;;;;;;;;;;22.24;89.80;95749.28;5113700;28;1023;-58
2023/09/17 07:26:06;;;;;;;;;;;;;;;22.23;92.23;95747.59;5125923;28;2681;-57
2023/09/17 07:28:32;;;;;;;;;;;;;;;22.26;92.42;95754.56;5122521;28;1033;-59
2023/09/17 07:30:58;;;;;;;;;;;;;;;22.58;90.20;95752.63;5113515;28;1056;-57
2023/09/17 07:33:24;;;;;;;;;;;;;;;22.81;86.15;95752.03;5113230;28;1119;-58
2023/09/17 07:35:51;;;;;;;;;;;;;;;23.07;83.69;95752.84;5112170;28;1044;-58
2023/09/17 07:38:17;;;;;;;;;;;;;;;22.74;84.62;95756.69;5111992;28;1897;-58
2023/09/17 07:40:43;;;;;;;;;;;;;;;22.87;87.74;95755.75;5113376;28;1096;-58
2023/09/17 07:43:09;;;;;;;;;;;;;;;23.07;87.53;95755.56;5115673;28;1021;-58
2023/09/17 07:45:35;;;;;;;;;;;;;;;23.54;84.67;95759.50;5117062;28;1079;-58
2023/09/17 07:48:02;;;;;;;;;;;;;;;23.39;82.91;95756.28;5117440;28;1072;-58
2023/09/17 07:50:28;;;;;;;;;;;;;;;23.17;89.67;95761.38;5117260;28;1040;-58
2023/09/17 07:52:54;;;;;;;;;;;;;;;23.04;90.35;95759.59;5116135;28;1023;-58
2023/09/17 07:55:20;;;;;;;;;;;;;;;23.13;89.40;95755.53;5117114;28;965;-58
2023/09/17 07:57:46;;;;;;;;;;;;;;;23.40;85.16;95749.78;5118269;27;1307;-57
2023/09/17 08:00:16;;;;;;;;;;;;;;;23.84;83.60;95761.47;5137281;27;1917;-58
2023/09/17 08:02:43;;;;;;;;;;;;;;;24.04;77.97;95761.22;5119622;27;1011;-58
2023/09/17 08:05:09;;;;;;;;;;;;;;;23.64;85.46;95764.41;5119127;27;1074;-58
2023/09/17 08:07:40;;;;;;;;;;;;;;;23.50;80.55;95766.44;5119389;27;1042;-58
2023/09/17 08:10:09;;;;;;;;;;;;;;;23.35;78.62;95760.53;5137204;27;1119;-58
2023/09/17 08:12:35;;;;;;;;;;;;;;;23.17;81.48;95756.75;5137300;27;953;-58
2023/09/17 08:15:01;;;;;;;;;;;;;;;23.35;82.61;95755.06;5137305;27;965;-58
2023/09/17 08:17:28;;;;;;;;;;;;;;;23.80;76.95;95760.25;5136946;27;1008;-57
2023/09/17 08:19:54;;;;;;;;;;;;;;;24.01;77.68;95760.84;5137242;27;1909;-59
2023/09/17 08:22:21;;;;;;;;;;;;;;;24.01;83.52;95749.91;5136117;27;1034;-56
2023/09/17 08:24:47;;;;;;;;;;;;;;;24.01;79.76;95739.00;5118930;27;962;-57
2023/09/17 08:27:16;;;;;;;;;;;;;;;23.73;74.67;95748.53;5137106;27;1003;-57
2023/09/17 08:29:43;;;;;;;;;;;;;;;23.51;77.47;95740.84;5136945;27;1040;-57
2023/09/17 08:32:11;;;;;;;;;;;;;;;24.03;79.15;95745.03;5136784;27;960;-57
2023/09/17 08:34:37;;;;;;;;;;;;;;;24.13;78.46;95735.25;5136678;27;1660;-58
2023/09/17 08:37:04;;;;;;;;;;;;;;;24.47;74.26;95742.91;5137021;27;961;-58
2023/09/17 08:39:31;;;;;;;;;;;;;;;24.57;71.14;95735.03;5123424;27;1913;-58
2023/09/17 08:42:00;;;;;;;;;;;;;;;24.49;69.48;95735.31;5116192;28;965;-58
2023/09/17 08:44:30;;;;;;;;;;;;;;;24.36;75.90;95731.75;5116238;28;1044;-58
2023/09/17 08:46:57;;;;;;;;;;;;;;;24.66;75.39;95733.63;5116211;28;988;-59
2023/09/17 08:49:23;;;;;;;;;;;;;;;24.96;70.45;95729.94;5115807;28;1044;-57
2023/09/17 08:51:51;;;;;;;;;;;;;;;25.02;72.35;95720.78;5115905;28;994;-58
2023/09/17 08:54:21;;;;;;;;;;;;;;;25.06;70.46;95722.00;5115640;28;1057;-57
2023/09/17 08:56:48;;;;;;;;;;;;;;;25.23;73.12;95719.41;5116193;28;930;-57
2023/09/17 08:59:22;;;;;;;;;;;;;;;25.18;72.67;95715.69;5101569;28;1906;-55
2023/09/17 09:01:48;;;;;;;;;;;;;;;25.41;72.03;95714.84;5095442;28;969;-55
2023/09/17 09:04:15;;;;;;;;;;;;;;;25.44;69.12;95717.06;5095161;28;1032;-55
2023/09/17 09:06:43;;;;;;;;;;;;;;;25.26;68.29;95716.16;5095141;28;1177;-55
2023/09/17 09:09:09;;;;;;;;;;;;;;;25.11;73.51;95705.66;5095264;28;1016;-55
2023/09/17 09:11:35;;;;;;;;;;;;;;;25.07;71.47;95712.69;5094996;28;1550;-55
2023/09/17 09:14:03;;;;;;;;;;;;;;;25.05;70.23;95712.09;5094998;28;1082;-55
2023/09/17 09:16:32;;;;;;;;;;;;;;;25.19;70.54;95709.13;5095144;28;973;-55
2023/09/17 09:18:59;;;;;;;;;;;;;;;25.13;69.25;95708.16;5094781;28;1898;-54
2023/09/17 09:21:25;;;;;;;;;;;;;;;25.32;68.63;95704.25;5094744;28;1036;-55
2023/09/17 09:23:51;;;;;;;;;;;;;;;25.37;71.00;95705.44;5110721;27;2910;-55
2023/09/17 09:26:17;;;;;;;;;;;;;;;25.55;72.10;95705.28;5135603;27;1087;-55
2023/09/17 09:28:44;;;;;;;;;;;;;;;25.67;70.41;95703.34;5135576;27;1983;-55
2023/09/17 09:31:10;;;;;;;;;;;;;;;25.59;67.29;95706.47;5132205;27;1907;-55
2023/09/17 09:33:36;;;;;;;;;;;;;;;25.26;72.98;95702.47;5114012;28;992;-55
2023/09/17 09:36:03;;;;;;;;;;;;;;;25.11;71.14;95700.19;5114169;28;974;-55
2023/09/17 09:38:29;;;;;;;;;;;;;;;24.65;73.51;95693.66;5117848;27;2484;-56
2023/09/17 09:40:55;;;;;;;;;;;;;;;24.72;73.04;95691.66;5135608;27;942;-55
2023/09/17 09:43:31;;;;;;;;;;;;;;;25.21;70.94;95691.41;5135148;27;1044;-56
2023/09/17 09:46:06;;;;;;;;;;;;;;;25.41;70.10;95685.56;5135543;27;1045;-55
2023/09/17 09:48:39;;;;;;;;;;;;;;;25.51;69.43;95693.97;5134993;27;1040;-55
2023/09/17 09:51:06;;;;;;;;;;;;;;;25.76;68.50;95695.56;5135189;27;996;-56
2023/09/17 09:53:32;;;;;;;;;;;;;;;26.05;67.98;95695.63;5135290;27;1041;-56
2023/09/17 09:55:58;;;;;;;;;;;;;;;26.03;69.76;95690.38;5134996;27;1044;-55
2023/09/17 09:58:24;;;;;;;;;;;;;;;25.88;71.25;95679.09;5128064;27;1918;-56
2023/09/17 10:00:52;;;;;;;;;;;;;;;25.72;71.76;95683.44;5114648;28;1044;-55
2023/09/17 10:03:20;;;;;;;;;;;;;;;25.52;71.61;95678.41;5114604;28;1048;-55
2023/09/17 10:05:46;;;;;;;;;;;;;;;25.48;68.73;95682.69;5113217;28;2644;-55
2023/09/17 10:08:12;;;;;;;;;;;;;;;25.56;68.67;95679.56;5114220;28;2845;-55
2023/09/17 10:10:40;;;;;;;;;;;;;;;25.87;69.17;95670.03;5121597;27;2776;-55
2023/09/17 10:13:07;;;;;;;;;;;;;;;26.17;67.70;95674.47;5114209;28;1040;-56
2023/09/17 10:15:34;;;;;;;;;;;;;;;26.27;68.17;95673.81;5114116;28;1041;-56
2023/09/17 10:18:01;;;;;;;;;;;;;;;26.46;67.24;95668.91;5114462;28;969;-56
2023/09/17 10:20:28;;;;;;;;;;;;;;;26.59;66.43;95663.13;5114036;28;1269;-56
2023/09/17 10:22:57;;;;;;;;;;;;;;;26.61;66.88;95662.88;5114367;28;1052;-55
2023/09/17 10:25:23;;;;;;;;;;;;;;;26.65;65.27;95662.16;5113889;28;1015;-55
2023/09/17 10:27:50;;;;;;;;;;;;;;;26.55;66.28;95650.97;5114273;28;1002;-56
2023/09/17 10:30:17;;;;;;;;;;;;;;;26.57;67.54;95650.72;5113886;28;1048;-56
2023/09/17 10:32:46;;;;;;;;;;;;;;;26.68;68.08;95652.59;5113966;28;1040;-55
2023/09/17 10:35:14;;;;;;;;;;;;;;;26.81;67.23;95645.94;5113776;28;1040;-56
2023/09/17 10:37:40;;;;;;;;;;;;;;;26.77;64.92;95642.00;5114169;28;1053;-56
2023/09/17 10:40:09;;;;;;;;;;;;;;;26.68;67.84;95641.63;5131754;27;1973;-56
2023/09/17 10:42:38;;;;;;;;;;;;;;;26.57;67.79;95642.50;5134664;27;976;-56
2023/09/17 10:45:10;;;;;;;;;;;;;;;26.47;67.55;95635.78;5134325;27;1237;-55
2023/09/17 10:47:38;;;;;;;;;;;;;;;26.37;65.54;95627.41;5116135;28;1024;-56
2023/09/17 10:50:04;;;;;;;;;;;;;;;26.57;67.35;95634.28;5134329;28;1043;-56
2023/09/17 10:52:31;;;;;;;;;;;;;;;26.63;67.06;95630.56;5134147;28;965;-56
2023/09/17 10:54:57;;;;;;;;;;;;;;;26.80;68.04;95623.13;5134491;28;1075;-55
2023/09/17 10:57:31;;;;;;;;;;;;;;;26.68;68.70;95612.25;5134302;28;961;-55
2023/09/17 10:59:59;;;;;;;;;;;;;;;26.44;68.84;95614.31;5134201;28;1976;-56
2023/09/17 11:02:26;;;;;;;;;;;;;;;26.32;67.14;95610.03;5134066;28;932;-55
2023/09/17 11:04:52;;;;;;;;;;;;;;;26.21;67.25;95596.16;5134084;28;1110;-55
2023/09/17 11:07:19;;;;;;;;;;;;;;;26.46;68.03;95605.84;5115704;28;1044;-56
2023/09/17 11:09:45;;;;;;;;;;;;;;;26.68;67.09;95590.31;5134099;28;1036;-55
2023/09/17 11:12:12;;;;;;;;;;;;;;;26.85;67.23;95593.03;5133933;28;1032;-56
2023/09/17 11:14:38;;;;;;;;;;;;;;;26.98;64.21;95596.50;5134058;28;1062;-55
2023/09/17 11:17:04;;;;;;;;;;;;;;;27.02;65.02;95587.50;5137899;27;975;-56
2023/09/17 11:19:30;;;;;;;;;;;;;;;27.05;64.23;95595.25;5138240;27;1914;-55
2023/09/17 11:22:02;;;;;;;;;;;;;;;26.93;63.70;95588.19;5120172;27;1036;-56
2023/09/17 11:24:28;;;;;;;;;;;;;;;26.71;64.16;95574.44;5138263;27;968;-56
2023/09/17 11:26:57;;;;;;;;;;;;;;;26.66;64.97;95575.22;5138005;27;1114;-55
2023/09/17 11:29:39;;;;;;;;;;;;;;;26.59;65.64;95574.53;5137848;27;1052;-55
2023/09/17 11:32:05;;;;;;;;;;;;;;;26.26;63.00;95570.75;5137871;27;1055;-55
2023/09/17 11:34:33;;;;;;;;;;;;;;;26.23;64.25;95563.84;5119509;27;1103;-55
2023/09/17 11:37:00;;;;;;;;;;;;;;;26.56;65.98;95566.78;5136531;27;2514;-55
2023/09/17 11:39:26;;;;;;;;;;;;;;;26.92;63.27;95570.91;5137378;27;1902;-55
2023/09/17 11:42:07;;;;;;;;;;;;;;;27.05;62.98;95569.69;5137700;27;1053;-55
2023/09/17 11:44:34;;;;;;;;;;;;;;;27.13;63.79;95563.78;5137645;27;997;-55
2023/09/17 11:47:01;;;;;;;;;;;;;;;27.12;63.53;95564.03;5137535;27;1044;-55
2023/09/17 11:49:28;;;;;;;;;;;;;;;27.10;62.62;95561.53;5137733;27;1067;-55
2023/09/17 11:51:57;;;;;;;;;;;;;;;27.15;61.54;95558.84;5137446;27;1029;-55
2023/09/17 11:54:28;;;;;;;;;;;;;;;27.22;60.05;95556.75;5137608;27;1036;-55
2023/09/17 11:56:55;;;;;;;;;;;;;;;27.31;61.40;95550.84;5137453;27;1036;-55
2023/09/17 11:59:21;;;;;;;;;;;;;;;27.32;62.86;95550.59;5103987;28;1905;-55
2023/09/17 12:01:49;;;;;;;;;;;;;;;27.38;60.74;95549.53;5099017;28;1007;-55
2023/09/17 12:04:16;;;;;;;;;;;;;;;27.45;62.40;95547.44;5116919;28;1059;-55
2023/09/17 12:06:44;;;;;;;;;;;;;;;27.50;61.04;95543.06;5116860;28;1045;-55
2023/09/17 12:12:19;;;;;;;;;;;;;;;27.15;57.99;95536.91;5033510;28;1070;-55
2023/09/17 12:14:47;;;;;;;;;;;;;;;27.05;59.55;95537.63;5033667;28;1004;-55
2023/09/17 12:17:14;;;;;;;;;;;;;;;26.81;58.55;95541.69;5073852;28;968;-55
2023/09/17 12:19:40;;;;;;;;;;;;;;;26.66;57.15;95534.91;5116285;28;1990;-55
2023/09/17 12:22:09;;;;;;;;;;;;;;;26.54;57.75;95531.41;5116418;28;1048;-55
2023/09/17 12:24:44;;;;;;;;;;;;;;;26.46;54.94;95529.94;5116241;28;1087;-55
2023/09/17 12:29:58;;;;;;;;;;;;;;;26.64;58.71;95536.25;5116233;28;1118;-55
2023/09/17 12:32:25;;;;;;;;;;;;;;;26.68;53.60;95542.88;5098016;28;993;-55
2023/09/17 12:34:52;;;;;;;;;;;;;;;26.95;55.50;95537.47;5116074;28;1067;-55
2023/09/17 12:37:20;;;;;;;;;;;;;;;27.14;52.89;95539.91;5116177;28;1052;-55
2023/09/17 12:39:46;;;;;;;;;;;;;;;27.34;53.53;95540.16;5131111;27;1906;-55
2023/09/17 12:42:13;;;;;;;;;;;;;;;27.35;53.39;95535.50;5136622;27;1031;-56
2023/09/17 12:44:39;;;;;;;;;;;;;;;27.22;52.14;95534.78;5136609;27;1040;-56
2023/09/17 12:47:06;;;;;;;;;;;;;;;27.08;55.40;95528.84;5136454;27;1099;-55
2023/09/17 12:49:33;;;;;;;;;;;;;;;26.89;56.06;95522.03;5136261;27;1095;-56
2023/09/17 12:52:03;;;;;;;;;;;;;;;26.81;58.44;95520.56;5135682;27;2538;-56
2023/09/17 12:54:29;;;;;;;;;;;;;;;26.63;57.97;95521.69;5135777;27;2921;-58
2023/09/17 12:56:55;;;;;;;;;;;;;;;26.53;57.00;95523.44;5136562;27;1052;-57
2023/09/17 12:59:32;;;;;;;;;;;;;;;26.52;57.49;95533.56;5135987;27;1913;-60